sensor_id;sensor_type;location;lat;lon;timestamp;temperature;humidity
1766;DHT22;880;52.452;8.656;2023-04-24T00:01:49;12.40;99.90
1766;DHT22;880;52.452;8.656;2023-04-24T00:04:18;12.30;99.90
1766;DHT22;880;52.452;8.656;2023-04-24T00:06:45;12.30;99.90
1766;DHT22;880;52.452;8.656;2023-04-24T00:09:15;12.30;99.90
1766;DHT22;880;52.452;8.656;2023-04-24T00:11:42;12.30;99.90
1766;DHT22;880;52.452;8.656;2023-04-24T00:14:09;12.30;99.90
1766;DHT22;880;52.452;8.656;2023-04-24T00:16:36;12.30;99.90
1766;DHT22;880;52.452;8.656;2023-04-24T00:19:03;12.30;99.90
1766;DHT22;880;52.452;8.656;2023-04-24T00:21:32;12.20;99.90
1766;DHT22;880;52.452;8.656;2023-04-24T00:23:59;12.20;99.90
1766;DHT22;880;52.452;8.656;2023-04-24T00:26:26;12.20;99.90
1766;DHT22;880;52.452;8.656;2023-04-24T00:28:53;12.30;99.90
1766;DHT22;880;52.452;8.656;2023-04-24T00:31:20;12.30;99.90
1766;DHT22;880;52.452;8.656;2023-04-24T00:33:47;12.30;99.90
1766;DHT22;880;52.452;8.656;2023-04-24T00:36:14;12.30;99.90
1766;DHT22;880;52.452;8.656;2023-04-24T00:38:41;12.30;99.90
1766;DHT22;880;52.452;8.656;2023-04-24T00:41:08;12.30;99.90
1766;DHT22;880;52.452;8.656;2023-04-24T00:43:35;12.30;99.90
1766;DHT22;880;52.452;8.656;2023-04-24T00:46:02;12.30;99.90
1766;DHT22;880;52.452;8.656;2023-04-24T00:48:30;12.30;99.90
1766;DHT22;880;52.452;8.656;2023-04-24T00:50:58;12.30;99.90
1766;DHT22;880;52.452;8.656;2023-04-24T00:53:25;12.30;99.90
1766;DHT22;880;52.452;8.656;2023-04-24T00:55:52;12.30;99.90
1766;DHT22;880;52.452;8.656;2023-04-24T00:58:19;12.30;99.90
1766;DHT22;880;52.452;8.656;2023-04-24T01:00:48;12.30;99.90
1766;DHT22;880;52.452;8.656;2023-04-24T01:03:16;12.30;99.90
1766;DHT22;880;52.452;8.656;2023-04-24T01:05:43;12.30;99.90
1766;DHT22;880;52.452;8.656;2023-04-24T01:08:10;12.20;99.90
1766;DHT22;880;52.452;8.656;2023-04-24T01:10:38;12.20;99.90
1766;DHT22;880;52.452;8.656;2023-04-24T01:13:08;12.20;99.90
1766;DHT22;880;52.452;8.656;2023-04-24T01:15:35;12.20;99.90
1766;DHT22;880;52.452;8.656;2023-04-24T01:18:03;12.20;99.90
1766;DHT22;880;52.452;8.656;2023-04-24T01:20:30;12.20;99.90
1766;DHT22;880;52.452;8.656;2023-04-24T01:22:58;12.20;99.90
1766;DHT22;880;52.452;8.656;2023-04-24T01:25:26;12.10;99.90
1766;DHT22;880;52.452;8.656;2023-04-24T01:28:00;12.20;99.90
1766;DHT22;880;52.452;8.656;2023-04-24T01:30:27;12.10;99.90
1766;DHT22;880;52.452;8.656;2023-04-24T01:32:56;12.10;99.90
1766;DHT22;880;52.452;8.656;2023-04-24T01:35:25;12.20;99.90
1766;DHT22;880;52.452;8.656;2023-04-24T01:37:52;12.10;99.90
1766;DHT22;880;52.452;8.656;2023-04-24T01:40:19;12.10;99.90
1766;DHT22;880;52.452;8.656;2023-04-24T01:42:47;12.10;99.90
1766;DHT22;880;52.452;8.656;2023-04-24T01:45:14;12.10;99.90
1766;DHT22;880;52.452;8.656;2023-04-24T01:47:41;12.10;99.90
1766;DHT22;880;52.452;8.656;2023-04-24T01:50:09;12.10;99.90
1766;DHT22;880;52.452;8.656;2023-04-24T01:52:38;12.10;99.90
1766;DHT22;880;52.452;8.656;2023-04-24T01:55:06;12.10;99.90
1766;DHT22;880;52.452;8.656;2023-04-24T01:57:33;12.00;99.90
1766;DHT22;880;52.452;8.656;2023-04-24T02:00:00;12.00;99.90
1766;DHT22;880;52.452;8.656;2023-04-24T02:02:28;12.00;99.90
1766;DHT22;880;52.452;8.656;2023-04-24T02:04:57;12.00;99.90
1766;DHT22;880;52.452;8.656;2023-04-24T02:07:24;11.90;99.90
1766;DHT22;880;52.452;8.656;2023-04-24T02:09:51;11.90;99.90
1766;DHT22;880;52.452;8.656;2023-04-24T02:12:17;11.90;99.90
1766;DHT22;880;52.452;8.656;2023-04-24T02:14:44;11.80;99.90
1766;DHT22;880;52.452;8.656;2023-04-24T02:17:11;11.80;99.90
1766;DHT22;880;52.452;8.656;2023-04-24T02:19:39;11.80;99.90
1766;DHT22;880;52.452;8.656;2023-04-24T02:22:07;11.80;99.90
1766;DHT22;880;52.452;8.656;2023-04-24T02:24:41;11.90;99.90
1766;DHT22;880;52.452;8.656;2023-04-24T02:27:08;11.80;99.90
1766;DHT22;880;52.452;8.656;2023-04-24T02:29:35;11.90;99.90
1766;DHT22;880;52.452;8.656;2023-04-24T02:32:02;11.80;99.90
1766;DHT22;880;52.452;8.656;2023-04-24T02:34:30;11.80;99.90
1766;DHT22;880;52.452;8.656;2023-04-24T02:36:58;11.80;99.90
1766;DHT22;880;52.452;8.656;2023-04-24T02:39:25;11.80;99.90
1766;DHT22;880;52.452;8.656;2023-04-24T02:41:53;11.80;99.90
1766;DHT22;880;52.452;8.656;2023-04-24T02:44:20;11.80;99.90
1766;DHT22;880;52.452;8.656;2023-04-24T02:46:48;11.70;99.90
1766;DHT22;880;52.452;8.656;2023-04-24T02:49:15;11.70;99.90
1766;DHT22;880;52.452;8.656;2023-04-24T02:51:42;11.80;99.90
1766;DHT22;880;52.452;8.656;2023-04-24T02:54:09;11.80;99.90
1766;DHT22;880;52.452;8.656;2023-04-24T02:56:37;11.70;99.90
1766;DHT22;880;52.452;8.656;2023-04-24T02:59:06;11.70;99.90
1766;DHT22;880;52.452;8.656;2023-04-24T03:01:33;11.70;99.90
1766;DHT22;880;52.452;8.656;2023-04-24T03:04:00;11.70;99.90
1766;DHT22;880;52.452;8.656;2023-04-24T03:06:28;11.70;99.90
1766;DHT22;880;52.452;8.656;2023-04-24T03:08:55;11.70;99.90
1766;DHT22;880;52.452;8.656;2023-04-24T03:11:22;11.60;99.90
1766;DHT22;880;52.452;8.656;2023-04-24T03:13:49;11.60;99.90
1766;DHT22;880;52.452;8.656;2023-04-24T03:16:16;11.60;99.90
1766;DHT22;880;52.452;8.656;2023-04-24T03:18:43;11.50;99.90
1766;DHT22;880;52.452;8.656;2023-04-24T03:21:10;11.40;99.90
1766;DHT22;880;52.452;8.656;2023-04-24T03:23:38;11.40;99.90
1766;DHT22;880;52.452;8.656;2023-04-24T03:26:06;11.30;99.90
1766;DHT22;880;52.452;8.656;2023-04-24T03:28:36;11.30;99.90
1766;DHT22;880;52.452;8.656;2023-04-24T03:31:03;11.20;99.90
1766;DHT22;880;52.452;8.656;2023-04-24T03:33:34;11.20;99.90
1766;DHT22;880;52.452;8.656;2023-04-24T03:36:03;11.20;99.90
1766;DHT22;880;52.452;8.656;2023-04-24T03:38:39;11.20;99.90
1766;DHT22;880;52.452;8.656;2023-04-24T03:41:20;11.10;99.90
1766;DHT22;880;52.452;8.656;2023-04-24T03:43:53;11.00;99.90
1766;DHT22;880;52.452;8.656;2023-04-24T03:46:20;10.90;99.90
1766;DHT22;880;52.452;8.656;2023-04-24T03:48:53;10.90;99.90
1766;DHT22;880;52.452;8.656;2023-04-24T03:51:25;10.80;99.90
1766;DHT22;880;52.452;8.656;2023-04-24T03:53:58;10.80;99.90
1766;DHT22;880;52.452;8.656;2023-04-24T03:56:28;10.70;99.90
1766;DHT22;880;52.452;8.656;2023-04-24T03:58:55;10.70;99.90
1766;DHT22;880;52.452;8.656;2023-04-24T04:01:22;10.70;99.90
1766;DHT22;880;52.452;8.656;2023-04-24T04:03:58;10.70;99.90
1766;DHT22;880;52.452;8.656;2023-04-24T04:06:26;10.60;99.90
1766;DHT22;880;52.452;8.656;2023-04-24T04:08:55;10.60;99.90
1766;DHT22;880;52.452;8.656;2023-04-24T04:11:23;10.60;99.90
1766;DHT22;880;52.452;8.656;2023-04-24T04:13:50;10.50;99.90
1766;DHT22;880;52.452;8.656;2023-04-24T04:16:20;10.50;99.90
1766;DHT22;880;52.452;8.656;2023-04-24T04:18:50;10.50;99.90
1766;DHT22;880;52.452;8.656;2023-04-24T04:21:17;10.60;99.90
1766;DHT22;880;52.452;8.656;2023-04-24T04:23:44;10.50;99.90
1766;DHT22;880;52.452;8.656;2023-04-24T04:26:19;10.50;99.90
1766;DHT22;880;52.452;8.656;2023-04-24T04:29:05;10.40;99.90
1766;DHT22;880;52.452;8.656;2023-04-24T04:31:36;10.40;99.90
1766;DHT22;880;52.452;8.656;2023-04-24T04:34:07;10.50;99.90
1766;DHT22;880;52.452;8.656;2023-04-24T04:36:35;10.50;99.90
1766;DHT22;880;52.452;8.656;2023-04-24T04:39:17;10.40;99.90
1766;DHT22;880;52.452;8.656;2023-04-24T04:41:56;10.30;99.90
1766;DHT22;880;52.452;8.656;2023-04-24T04:44:27;10.30;99.90
1766;DHT22;880;52.452;8.656;2023-04-24T04:46:57;10.30;99.90
1766;DHT22;880;52.452;8.656;2023-04-24T04:49:27;10.30;99.90
1766;DHT22;880;52.452;8.656;2023-04-24T04:51:55;10.30;99.90
1766;DHT22;880;52.452;8.656;2023-04-24T04:54:24;10.20;99.90
1766;DHT22;880;52.452;8.656;2023-04-24T04:56:51;10.20;99.90
1766;DHT22;880;52.452;8.656;2023-04-24T04:59:19;10.20;99.90
1766;DHT22;880;52.452;8.656;2023-04-24T05:01:48;10.30;99.90
1766;DHT22;880;52.452;8.656;2023-04-24T05:04:16;10.30;99.90
1766;DHT22;880;52.452;8.656;2023-04-24T05:06:43;10.40;99.90
1766;DHT22;880;52.452;8.656;2023-04-24T05:09:11;10.40;99.90
1766;DHT22;880;52.452;8.656;2023-04-24T05:11:49;10.40;99.90
1766;DHT22;880;52.452;8.656;2023-04-24T05:14:16;10.50;99.90
1766;DHT22;880;52.452;8.656;2023-04-24T05:16:44;10.50;99.90
1766;DHT22;880;52.452;8.656;2023-04-24T05:19:13;10.60;99.90
1766;DHT22;880;52.452;8.656;2023-04-24T05:21:41;10.60;99.90
1766;DHT22;880;52.452;8.656;2023-04-24T05:24:09;10.60;99.90
1766;DHT22;880;52.452;8.656;2023-04-24T05:26:58;10.60;99.90
1766;DHT22;880;52.452;8.656;2023-04-24T05:29:38;10.50;99.90
1766;DHT22;880;52.452;8.656;2023-04-24T05:32:06;10.50;99.90
1766;DHT22;880;52.452;8.656;2023-04-24T05:34:33;10.40;99.90
1766;DHT22;880;52.452;8.656;2023-04-24T05:37:02;10.40;99.90
1766;DHT22;880;52.452;8.656;2023-04-24T05:39:29;10.40;99.90
1766;DHT22;880;52.452;8.656;2023-04-24T05:41:56;10.40;99.90
1766;DHT22;880;52.452;8.656;2023-04-24T05:44:24;10.40;99.90
1766;DHT22;880;52.452;8.656;2023-04-24T05:46:52;10.40;99.90
1766;DHT22;880;52.452;8.656;2023-04-24T05:49:25;10.50;99.90
1766;DHT22;880;52.452;8.656;2023-04-24T05:51:53;10.50;99.90
1766;DHT22;880;52.452;8.656;2023-04-24T05:54:20;10.60;99.90
1766;DHT22;880;52.452;8.656;2023-04-24T05:56:47;10.70;99.90
1766;DHT22;880;52.452;8.656;2023-04-24T05:59:21;10.80;99.90
1766;DHT22;880;52.452;8.656;2023-04-24T06:01:49;10.80;99.90
1766;DHT22;880;52.452;8.656;2023-04-24T06:04:19;10.90;99.90
1766;DHT22;880;52.452;8.656;2023-04-24T06:06:46;10.90;99.90
1766;DHT22;880;52.452;8.656;2023-04-24T06:09:17;11.00;99.90
1766;DHT22;880;52.452;8.656;2023-04-24T06:11:44;11.10;99.90
1766;DHT22;880;52.452;8.656;2023-04-24T06:14:13;11.20;99.90
1766;DHT22;880;52.452;8.656;2023-04-24T06:17:15;11.20;99.90
1766;DHT22;880;52.452;8.656;2023-04-24T06:19:44;11.10;99.90
1766;DHT22;880;52.452;8.656;2023-04-24T06:22:11;11.00;99.90
1766;DHT22;880;52.452;8.656;2023-04-24T06:24:41;11.00;99.90
1766;DHT22;880;52.452;8.656;2023-04-24T06:27:08;11.00;99.90
1766;DHT22;880;52.452;8.656;2023-04-24T06:29:36;11.00;99.90
1766;DHT22;880;52.452;8.656;2023-04-24T06:32:03;11.00;99.90
1766;DHT22;880;52.452;8.656;2023-04-24T06:34:31;10.90;99.90
1766;DHT22;880;52.452;8.656;2023-04-24T06:37:00;11.00;99.90
1766;DHT22;880;52.452;8.656;2023-04-24T06:39:27;11.00;99.90
1766;DHT22;880;52.452;8.656;2023-04-24T06:41:54;11.10;99.90
1766;DHT22;880;52.452;8.656;2023-04-24T06:44:23;11.10;99.90
1766;DHT22;880;52.452;8.656;2023-04-24T06:46:50;11.20;99.90
1766;DHT22;880;52.452;8.656;2023-04-24T06:49:17;11.30;99.90
1766;DHT22;880;52.452;8.656;2023-04-24T06:51:44;11.30;99.90
1766;DHT22;880;52.452;8.656;2023-04-24T06:54:11;11.30;99.90
1766;DHT22;880;52.452;8.656;2023-04-24T06:56:38;11.20;99.90
1766;DHT22;880;52.452;8.656;2023-04-24T06:59:05;11.20;99.90
1766;DHT22;880;52.452;8.656;2023-04-24T07:01:32;11.10;99.90
1766;DHT22;880;52.452;8.656;2023-04-24T07:03:59;11.00;99.90
1766;DHT22;880;52.452;8.656;2023-04-24T07:06:26;11.00;99.90
1766;DHT22;880;52.452;8.656;2023-04-24T07:08:53;10.90;99.90
1766;DHT22;880;52.452;8.656;2023-04-24T07:11:21;10.90;99.90
1766;DHT22;880;52.452;8.656;2023-04-24T07:13:48;10.90;99.90
1766;DHT22;880;52.452;8.656;2023-04-24T07:16:15;10.90;99.90
1766;DHT22;880;52.452;8.656;2023-04-24T07:18:42;11.00;99.90
1766;DHT22;880;52.452;8.656;2023-04-24T07:21:10;11.10;99.90
1766;DHT22;880;52.452;8.656;2023-04-24T07:23:37;11.10;99.90
1766;DHT22;880;52.452;8.656;2023-04-24T07:26:04;11.10;99.90
1766;DHT22;880;52.452;8.656;2023-04-24T07:28:31;11.20;99.90
1766;DHT22;880;52.452;8.656;2023-04-24T07:30:58;11.20;99.90
1766;DHT22;880;52.452;8.656;2023-04-24T07:33:26;11.30;99.90
1766;DHT22;880;52.452;8.656;2023-04-24T07:35:53;11.30;99.90
1766;DHT22;880;52.452;8.656;2023-04-24T07:38:20;11.40;99.90
1766;DHT22;880;52.452;8.656;2023-04-24T07:40:49;11.30;99.90
1766;DHT22;880;52.452;8.656;2023-04-24T07:43:16;11.30;99.90
1766;DHT22;880;52.452;8.656;2023-04-24T07:45:43;11.30;99.90
1766;DHT22;880;52.452;8.656;2023-04-24T07:48:10;11.10;99.90
1766;DHT22;880;52.452;8.656;2023-04-24T07:50:40;11.10;99.90
1766;DHT22;880;52.452;8.656;2023-04-24T07:53:07;11.00;99.90
1766;DHT22;880;52.452;8.656;2023-04-24T07:55:34;11.00;99.90
1766;DHT22;880;52.452;8.656;2023-04-24T07:58:01;11.00;99.90
1766;DHT22;880;52.452;8.656;2023-04-24T08:00:28;11.00;99.90
1766;DHT22;880;52.452;8.656;2023-04-24T08:02:56;10.90;99.90
1766;DHT22;880;52.452;8.656;2023-04-24T08:05:23;11.00;99.90
1766;DHT22;880;52.452;8.656;2023-04-24T08:07:52;10.90;99.90
1766;DHT22;880;52.452;8.656;2023-04-24T08:10:20;10.90;99.90
1766;DHT22;880;52.452;8.656;2023-04-24T08:12:47;10.90;99.90
1766;DHT22;880;52.452;8.656;2023-04-24T08:15:14;11.00;99.90
1766;DHT22;880;52.452;8.656;2023-04-24T08:17:41;11.00;99.90
1766;DHT22;880;52.452;8.656;2023-04-24T08:20:12;11.00;99.90
1766;DHT22;880;52.452;8.656;2023-04-24T08:22:43;11.10;99.90
1766;DHT22;880;52.452;8.656;2023-04-24T08:25:10;11.10;99.90
1766;DHT22;880;52.452;8.656;2023-04-24T08:27:37;11.10;99.90
1766;DHT22;880;52.452;8.656;2023-04-24T08:30:06;11.10;99.90
1766;DHT22;880;52.452;8.656;2023-04-24T08:32:33;11.10;99.90
1766;DHT22;880;52.452;8.656;2023-04-24T08:35:00;11.10;99.90
1766;DHT22;880;52.452;8.656;2023-04-24T08:37:27;11.10;99.90
1766;DHT22;880;52.452;8.656;2023-04-24T08:39:55;11.10;99.90
1766;DHT22;880;52.452;8.656;2023-04-24T08:42:22;11.10;99.90
1766;DHT22;880;52.452;8.656;2023-04-24T08:44:49;11.10;99.90
1766;DHT22;880;52.452;8.656;2023-04-24T08:47:16;11.00;99.90
1766;DHT22;880;52.452;8.656;2023-04-24T08:49:44;11.00;99.90
1766;DHT22;880;52.452;8.656;2023-04-24T08:52:12;11.00;99.90
1766;DHT22;880;52.452;8.656;2023-04-24T08:54:40;11.00;99.90
1766;DHT22;880;52.452;8.656;2023-04-24T08:57:10;11.10;99.90
1766;DHT22;880;52.452;8.656;2023-04-24T08:59:38;11.10;99.90
1766;DHT22;880;52.452;8.656;2023-04-24T09:02:10;11.20;99.90
1766;DHT22;880;52.452;8.656;2023-04-24T09:04:38;11.30;99.90
1766;DHT22;880;52.452;8.656;2023-04-24T09:07:08;11.30;99.90
1766;DHT22;880;52.452;8.656;2023-04-24T09:09:38;11.30;99.90
1766;DHT22;880;52.452;8.656;2023-04-24T09:12:05;11.30;99.90
1766;DHT22;880;52.452;8.656;2023-04-24T09:14:33;11.40;99.90
1766;DHT22;880;52.452;8.656;2023-04-24T09:17:00;11.50;99.90
1766;DHT22;880;52.452;8.656;2023-04-24T09:19:27;11.70;99.90
1766;DHT22;880;52.452;8.656;2023-04-24T09:21:54;11.70;99.90
1766;DHT22;880;52.452;8.656;2023-04-24T09:24:22;11.70;99.90
1766;DHT22;880;52.452;8.656;2023-04-24T09:26:56;11.70;99.90
1766;DHT22;880;52.452;8.656;2023-04-24T09:29:25;11.70;99.90
1766;DHT22;880;52.452;8.656;2023-04-24T09:31:52;11.60;99.90
1766;DHT22;880;52.452;8.656;2023-04-24T09:34:23;11.50;99.90
1766;DHT22;880;52.452;8.656;2023-04-24T09:36:52;11.40;99.90
1766;DHT22;880;52.452;8.656;2023-04-24T09:39:20;11.30;99.90
1766;DHT22;880;52.452;8.656;2023-04-24T09:41:54;11.30;99.90
1766;DHT22;880;52.452;8.656;2023-04-24T09:44:27;11.30;99.90
1766;DHT22;880;52.452;8.656;2023-04-24T09:46:56;11.30;99.90
1766;DHT22;880;52.452;8.656;2023-04-24T09:49:26;11.30;99.90
1766;DHT22;880;52.452;8.656;2023-04-24T09:52:06;11.20;99.90
1766;DHT22;880;52.452;8.656;2023-04-24T09:54:36;11.20;99.90
1766;DHT22;880;52.452;8.656;2023-04-24T09:57:03;11.30;99.90
1766;DHT22;880;52.452;8.656;2023-04-24T09:59:31;11.30;99.90
1766;DHT22;880;52.452;8.656;2023-04-24T10:02:00;11.30;99.90
1766;DHT22;880;52.452;8.656;2023-04-24T10:04:28;11.30;99.90
1766;DHT22;880;52.452;8.656;2023-04-24T10:06:56;11.40;99.90
1766;DHT22;880;52.452;8.656;2023-04-24T10:09:26;11.60;99.90
1766;DHT22;880;52.452;8.656;2023-04-24T10:11:54;11.50;99.90
1766;DHT22;880;52.452;8.656;2023-04-24T10:14:23;11.50;99.90
1766;DHT22;880;52.452;8.656;2023-04-24T10:16:53;11.50;99.90
1766;DHT22;880;52.452;8.656;2023-04-24T10:19:21;11.50;99.90
1766;DHT22;880;52.452;8.656;2023-04-24T10:21:52;11.40;99.90
1766;DHT22;880;52.452;8.656;2023-04-24T10:24:21;11.30;99.90
1766;DHT22;880;52.452;8.656;2023-04-24T10:26:48;11.30;99.90
1766;DHT22;880;52.452;8.656;2023-04-24T10:29:17;11.30;99.90
1766;DHT22;880;52.452;8.656;2023-04-24T10:31:45;11.30;99.90
1766;DHT22;880;52.452;8.656;2023-04-24T10:34:16;11.30;99.90
1766;DHT22;880;52.452;8.656;2023-04-24T10:36:51;11.20;99.90
1766;DHT22;880;52.452;8.656;2023-04-24T10:39:21;11.20;99.90
1766;DHT22;880;52.452;8.656;2023-04-24T10:41:54;11.10;99.90
1766;DHT22;880;52.452;8.656;2023-04-24T10:44:24;11.00;99.90
1766;DHT22;880;52.452;8.656;2023-04-24T10:46:55;11.00;99.90
1766;DHT22;880;52.452;8.656;2023-04-24T10:49:30;10.90;99.90
1766;DHT22;880;52.452;8.656;2023-04-24T10:52:03;10.90;99.90
1766;DHT22;880;52.452;8.656;2023-04-24T10:54:46;10.80;99.90
1766;DHT22;880;52.452;8.656;2023-04-24T11:00:09;10.80;99.90
1766;DHT22;880;52.452;8.656;2023-04-24T11:02:40;10.90;99.90
1766;DHT22;880;52.452;8.656;2023-04-24T11:05:16;10.90;99.90
1766;DHT22;880;52.452;8.656;2023-04-24T11:08:29;10.80;99.90
1766;DHT22;880;52.452;8.656;2023-04-24T11:11:00;10.70;99.90
1766;DHT22;880;52.452;8.656;2023-04-24T11:22:02;10.90;99.90
1766;DHT22;880;52.452;8.656;2023-04-24T11:32:27;11.00;99.90
1766;DHT22;880;52.452;8.656;2023-04-24T11:37:57;11.10;99.90
1766;DHT22;880;52.452;8.656;2023-04-24T11:40:28;11.10;99.90
1766;DHT22;880;52.452;8.656;2023-04-24T11:42:55;11.00;99.90
1766;DHT22;880;52.452;8.656;2023-04-24T11:45:32;11.00;99.90
1766;DHT22;880;52.452;8.656;2023-04-24T11:48:01;10.90;99.90
1766;DHT22;880;52.452;8.656;2023-04-24T11:50:29;10.90;99.90
1766;DHT22;880;52.452;8.656;2023-04-24T11:52:57;10.90;99.90
1766;DHT22;880;52.452;8.656;2023-04-24T11:55:26;10.80;99.90
1766;DHT22;880;52.452;8.656;2023-04-24T11:57:56;10.70;99.90
1766;DHT22;880;52.452;8.656;2023-04-24T12:00:27;10.50;99.90
1766;DHT22;880;52.452;8.656;2023-04-24T12:03:09;10.30;99.90
1766;DHT22;880;52.452;8.656;2023-04-24T12:05:38;10.20;99.90
1766;DHT22;880;52.452;8.656;2023-04-24T12:08:06;10.00;99.90
1766;DHT22;880;52.452;8.656;2023-04-24T12:10:34;10.00;99.90
1766;DHT22;880;52.452;8.656;2023-04-24T12:13:02;9.90;99.90
1766;DHT22;880;52.452;8.656;2023-04-24T12:15:29;9.80;99.90
1766;DHT22;880;52.452;8.656;2023-04-24T12:17:57;9.70;99.90
1766;DHT22;880;52.452;8.656;2023-04-24T12:20:32;9.60;99.90
1766;DHT22;880;52.452;8.656;2023-04-24T12:23:00;9.60;99.90
1766;DHT22;880;52.452;8.656;2023-04-24T12:25:30;9.50;99.90
1766;DHT22;880;52.452;8.656;2023-04-24T12:30:34;9.60;99.90
1766;DHT22;880;52.452;8.656;2023-04-24T12:33:06;9.50;99.90
1766;DHT22;880;52.452;8.656;2023-04-24T12:35:34;9.60;99.90
1766;DHT22;880;52.452;8.656;2023-04-24T12:38:10;9.50;99.90
1766;DHT22;880;52.452;8.656;2023-04-24T12:40:44;9.50;99.90
1766;DHT22;880;52.452;8.656;2023-04-24T12:43:15;9.60;99.90
1766;DHT22;880;52.452;8.656;2023-04-24T12:45:43;9.60;99.90
1766;DHT22;880;52.452;8.656;2023-04-24T12:48:11;9.50;99.90
1766;DHT22;880;52.452;8.656;2023-04-24T12:50:40;9.40;99.90
1766;DHT22;880;52.452;8.656;2023-04-24T12:53:12;9.40;99.90
1766;DHT22;880;52.452;8.656;2023-04-24T12:55:39;9.30;99.90
1766;DHT22;880;52.452;8.656;2023-04-24T12:58:07;9.30;99.90
1766;DHT22;880;52.452;8.656;2023-04-24T13:00:34;9.30;99.90
1766;DHT22;880;52.452;8.656;2023-04-24T13:03:01;9.40;99.90
1766;DHT22;880;52.452;8.656;2023-04-24T13:05:29;9.40;99.90
1766;DHT22;880;52.452;8.656;2023-04-24T13:07:57;9.30;99.90
1766;DHT22;880;52.452;8.656;2023-04-24T13:10:24;9.40;99.90
1766;DHT22;880;52.452;8.656;2023-04-24T13:12:51;9.50;99.90
1766;DHT22;880;52.452;8.656;2023-04-24T13:15:18;9.50;99.90
1766;DHT22;880;52.452;8.656;2023-04-24T13:17:45;9.50;99.90
1766;DHT22;880;52.452;8.656;2023-04-24T13:20:12;9.50;99.90
1766;DHT22;880;52.452;8.656;2023-04-24T13:22:39;9.50;99.90
1766;DHT22;880;52.452;8.656;2023-04-24T13:25:06;9.50;99.90
1766;DHT22;880;52.452;8.656;2023-04-24T13:27:33;9.40;99.90
1766;DHT22;880;52.452;8.656;2023-04-24T13:30:00;9.40;99.90
1766;DHT22;880;52.452;8.656;2023-04-24T13:32:27;9.40;99.90
1766;DHT22;880;52.452;8.656;2023-04-24T13:34:56;9.50;99.90
1766;DHT22;880;52.452;8.656;2023-04-24T13:37:23;9.50;99.90
1766;DHT22;880;52.452;8.656;2023-04-24T13:39:50;9.50;99.90
1766;DHT22;880;52.452;8.656;2023-04-24T13:42:18;9.50;99.90
1766;DHT22;880;52.452;8.656;2023-04-24T13:44:46;9.40;99.90
1766;DHT22;880;52.452;8.656;2023-04-24T13:47:13;9.40;99.90
1766;DHT22;880;52.452;8.656;2023-04-24T13:49:40;9.40;99.90
1766;DHT22;880;52.452;8.656;2023-04-24T13:52:07;9.40;99.90
1766;DHT22;880;52.452;8.656;2023-04-24T13:54:34;9.40;99.90
1766;DHT22;880;52.452;8.656;2023-04-24T13:57:01;9.50;99.90
1766;DHT22;880;52.452;8.656;2023-04-24T13:59:29;9.60;99.90
1766;DHT22;880;52.452;8.656;2023-04-24T14:01:56;9.70;99.90
1766;DHT22;880;52.452;8.656;2023-04-24T14:04:24;9.60;99.90
1766;DHT22;880;52.452;8.656;2023-04-24T14:06:51;9.50;99.90
1766;DHT22;880;52.452;8.656;2023-04-24T14:09:18;9.40;99.90
1766;DHT22;880;52.452;8.656;2023-04-24T14:11:45;9.40;99.90
1766;DHT22;880;52.452;8.656;2023-04-24T14:14:12;9.40;99.90
1766;DHT22;880;52.452;8.656;2023-04-24T14:16:39;9.30;99.90
1766;DHT22;880;52.452;8.656;2023-04-24T14:19:06;9.30;99.90
1766;DHT22;880;52.452;8.656;2023-04-24T14:21:33;9.40;99.90
1766;DHT22;880;52.452;8.656;2023-04-24T14:24:00;9.40;99.90
1766;DHT22;880;52.452;8.656;2023-04-24T14:26:27;9.40;99.90
1766;DHT22;880;52.452;8.656;2023-04-24T14:28:54;9.40;99.90
1766;DHT22;880;52.452;8.656;2023-04-24T14:31:39;9.40;99.90
1766;DHT22;880;52.452;8.656;2023-04-24T14:34:06;9.40;99.90
1766;DHT22;880;52.452;8.656;2023-04-24T14:36:33;9.50;99.90
1766;DHT22;880;52.452;8.656;2023-04-24T14:39:00;9.50;99.90
1766;DHT22;880;52.452;8.656;2023-04-24T14:41:29;9.60;99.90
1766;DHT22;880;52.452;8.656;2023-04-24T14:43:57;9.70;99.90
1766;DHT22;880;52.452;8.656;2023-04-24T14:46:24;9.70;99.90
1766;DHT22;880;52.452;8.656;2023-04-24T14:48:52;9.70;99.90
1766;DHT22;880;52.452;8.656;2023-04-24T14:51:19;9.70;99.90
1766;DHT22;880;52.452;8.656;2023-04-24T14:53:46;9.60;99.90
1766;DHT22;880;52.452;8.656;2023-04-24T14:56:14;9.60;99.90
1766;DHT22;880;52.452;8.656;2023-04-24T14:58:41;9.60;99.90
1766;DHT22;880;52.452;8.656;2023-04-24T15:01:08;9.50;99.90
1766;DHT22;880;52.452;8.656;2023-04-24T15:03:35;9.50;99.90
1766;DHT22;880;52.452;8.656;2023-04-24T15:06:03;9.50;99.90
1766;DHT22;880;52.452;8.656;2023-04-24T15:08:30;9.50;99.90
1766;DHT22;880;52.452;8.656;2023-04-24T15:10:57;9.50;99.90
1766;DHT22;880;52.452;8.656;2023-04-24T15:13:24;9.50;99.90
1766;DHT22;880;52.452;8.656;2023-04-24T15:15:51;9.50;99.90
1766;DHT22;880;52.452;8.656;2023-04-24T15:18:18;9.50;99.90
1766;DHT22;880;52.452;8.656;2023-04-24T15:20:45;9.50;99.90
1766;DHT22;880;52.452;8.656;2023-04-24T15:23:12;9.50;99.90
1766;DHT22;880;52.452;8.656;2023-04-24T15:25:39;9.50;99.90
1766;DHT22;880;52.452;8.656;2023-04-24T15:28:06;9.50;99.90
1766;DHT22;880;52.452;8.656;2023-04-24T15:30:33;9.50;99.90
1766;DHT22;880;52.452;8.656;2023-04-24T15:33:00;9.50;99.90
1766;DHT22;880;52.452;8.656;2023-04-24T15:35:28;9.50;99.90
1766;DHT22;880;52.452;8.656;2023-04-24T15:37:55;9.50;99.90
1766;DHT22;880;52.452;8.656;2023-04-24T15:40:22;9.50;99.90
1766;DHT22;880;52.452;8.656;2023-04-24T15:42:49;9.50;99.90
1766;DHT22;880;52.452;8.656;2023-04-24T15:45:16;9.60;99.90
1766;DHT22;880;52.452;8.656;2023-04-24T15:47:44;9.60;99.90
1766;DHT22;880;52.452;8.656;2023-04-24T15:50:15;9.60;99.90
1766;DHT22;880;52.452;8.656;2023-04-24T15:52:44;9.60;99.90
1766;DHT22;880;52.452;8.656;2023-04-24T15:55:11;9.70;99.90
1766;DHT22;880;52.452;8.656;2023-04-24T15:57:39;9.70;99.90
1766;DHT22;880;52.452;8.656;2023-04-24T16:00:06;9.70;99.90
1766;DHT22;880;52.452;8.656;2023-04-24T16:02:38;9.70;99.90
1766;DHT22;880;52.452;8.656;2023-04-24T16:05:06;9.60;99.90
1766;DHT22;880;52.452;8.656;2023-04-24T16:07:33;9.60;99.90
1766;DHT22;880;52.452;8.656;2023-04-24T16:10:03;9.60;99.90
1766;DHT22;880;52.452;8.656;2023-04-24T16:12:30;9.50;99.90
1766;DHT22;880;52.452;8.656;2023-04-24T16:14:57;9.50;99.90
1766;DHT22;880;52.452;8.656;2023-04-24T16:17:24;9.50;99.90
1766;DHT22;880;52.452;8.656;2023-04-24T16:19:51;9.50;99.90
1766;DHT22;880;52.452;8.656;2023-04-24T16:22:18;9.50;99.90
1766;DHT22;880;52.452;8.656;2023-04-24T16:24:45;9.50;99.90
1766;DHT22;880;52.452;8.656;2023-04-24T16:27:14;9.50;99.90
1766;DHT22;880;52.452;8.656;2023-04-24T16:29:41;9.50;99.90
1766;DHT22;880;52.452;8.656;2023-04-24T16:32:08;9.40;99.90
1766;DHT22;880;52.452;8.656;2023-04-24T16:34:36;9.40;99.90
1766;DHT22;880;52.452;8.656;2023-04-24T16:37:03;9.40;99.90
1766;DHT22;880;52.452;8.656;2023-04-24T16:39:31;9.40;99.90
1766;DHT22;880;52.452;8.656;2023-04-24T16:41:58;9.40;99.90
1766;DHT22;880;52.452;8.656;2023-04-24T16:44:26;9.50;99.90
1766;DHT22;880;52.452;8.656;2023-04-24T16:46:53;9.50;99.90
1766;DHT22;880;52.452;8.656;2023-04-24T16:49:20;9.50;99.90
1766;DHT22;880;52.452;8.656;2023-04-24T16:51:49;9.60;99.90
1766;DHT22;880;52.452;8.656;2023-04-24T16:54:16;9.50;99.90
1766;DHT22;880;52.452;8.656;2023-04-24T16:56:43;9.50;99.90